Abel Matutes — ECPD — position and weather

sailwx.info

Track history (hours):
 
Tides and Currents Weather Stations Pressure Air Temp Water Temp Dewpoint Dewpoint Depression Visibility Wind Speed Wind Dir Waves Ship Positions

Abel Matutes

Last reported at 2018-Jun-22 20:00 UTC. Time now 2018-Jun-22 20:23 UTC.
Position N 39°27' W 000°19'.

Length 190 m; draft 5.5 m.

Type: Passenger vessel. MMSI: 224402000.

Date/timePositionNaut miles runAvg speedWind from/ knotsBaromVisibWave heightAir tempDewpointWater temp
2018-Jun-22 20:00N 39°27' W 000°19'0 0.0
2018-Jun-22 19:30N 39°27' W 000°19'0 0.0
2018-Jun-22 19:00N 39°27' W 000°19'0 0.4
2018-Jun-22 18:31N 39°27' W 000°19'916.4
2018-Jun-22 17:57N 39°22' W 000°09'4221.5
2018-Jun-22 15:58N 39°03' E 000°40'1521.4
2018-Jun-22 15:15N 38°56' E 000°57'1021.3
2018-Jun-22 14:46N 38°51' E 001°09'621.2
2018-Jun-22 14:29N 38°49' E 001°17'914.4
2018-Jun-22 13:52N 38°53' E 001°27'2 3.3
2018-Jun-22 13:22N 38°54' E 001°27'0 0.0
2018-Jun-22 12:57N 38°54' E 001°27'0 0.0
2018-Jun-22 12:30N 38°54' E 001°27'4 6.2
2018-Jun-22 11:56N 38°55' E 001°32'921.1
2018-Jun-22 11:30N 38°60' E 001°41'2421.2
2018-Jun-22 10:22N 39°13' E 002°07'821.4
2018-Jun-22 09:59N 39°18' E 002°15'1021.0
2018-Jun-22 09:31N 39°23' E 002°26'1120.7
2018-Jun-22 09:00N 39°30' E 002°36'3 5.3
2018-Jun-22 08:28N 39°33' E 002°38'0 0.0
2018-Jun-22 07:59N 39°33' E 002°38'0 0.0
2018-Jun-22 07:29N 39°33' E 002°38'0 0.0
2018-Jun-22 06:59N 39°33' E 002°38'0 0.7
2018-Jun-22 06:30N 39°33' E 002°39'917.2
2018-Jun-22 06:00N 39°26' E 002°32'1121.5
2018-Jun-22 05:30N 39°20' E 002°20'1121.6
2018-Jun-22 05:01N 39°14' E 002°09'1121.5
2018-Jun-22 04:31N 39°08' E 001°57'1321.6
2018-Jun-22 03:53N 39°00' E 001°43'1021.1
2018-Jun-22 03:25N 38°55' E 001°32'4 8.7
2018-Jun-22 02:56N 38°54' E 001°27'0 0.0
2018-Jun-22 02:30N 38°54' E 001°27'1 1.1
2018-Jun-22 01:58N 38°54' E 001°27'1514.5
2018-Jun-22 00:58N 38°50' E 001°09'1120.5
2018-Jun-22 00:27N 38°55' E 000°56'1420.7
2018-Jun-21 23:47N 39°01' E 000°41'2220.4
2018-Jun-21 22:43N 39°12' E 000°16'620.4
2018-Jun-21 22:26N 39°15' E 000°09'1120.4
2018-Jun-21 21:55N 39°20' W 000°03'920.5
2018-Jun-21 21:29N 39°24' W 000°13'611.3
2018-Jun-21 20:58N 39°27' W 000°19'0 0.0
2018-Jun-21 20:30N 39°27' W 000°19'0 0.0
2018-Jun-21 19:58N 39°27' W 000°19'0 0.0
2018-Jun-21 19:28N 39°27' W 000°19'0 0.0
2018-Jun-21 19:00N 39°27' W 000°19'0 0.0
2018-Jun-21 18:31N 39°27' W 000°19'4 8.0
2018-Jun-21 18:01N 39°25' W 000°15'1420.7
2018-Jun-21 17:21N 39°18' E 000°01'821.1
2018-Jun-21 16:58N 39°15' E 000°10'1021.4
2018-Jun-21 16:30N 39°10' E 000°21'1221.6
2018-Jun-21 15:56N 39°05' E 000°35'1321.5
2018-Jun-21 15:20N 38°59' E 000°50'721.4
2018-Jun-21 15:01N 38°55' E 000°58'1121.5
2018-Jun-21 14:30N 38°51' E 001°11'1121.1
2018-Jun-21 13:59N 38°48' E 001°24'711.0
2018-Jun-21 13:23N 38°54' E 001°27'0 0.0
2018-Jun-21 12:56N 38°54' E 001°27'0 0.2
2018-Jun-21 12:12N 38°54' E 001°27'2 7.9
2018-Jun-21 12:00N 38°54' E 001°29'1921.3
2018-Jun-21 11:07N 39°04' E 001°49'921.3
2018-Jun-21 10:42N 39°09' E 001°59'421.2
2018-Jun-21 10:31N 39°11' E 002°03'1121.3
2018-Jun-21 10:00N 39°17' E 002°15'1120.9
2018-Jun-21 09:30N 39°23' E 002°26'1020.1
2018-Jun-21 09:00N 39°29' E 002°36'4 7.8
2018-Jun-21 08:29N 39°33' E 002°38'0 0.0
2018-Jun-21 07:59N 39°33' E 002°38'0 0.0
2018-Jun-21 07:28N 39°33' E 002°38'0 0.0
2018-Jun-21 06:58N 39°33' E 002°38'0 0.0
2018-Jun-21 06:30N 39°33' E 002°38'1 1.1
2018-Jun-21 05:59N 39°32' E 002°38'1019.9
2018-Jun-21 05:30N 39°25' E 002°31'1020.7
2018-Jun-21 05:00N 39°19' E 002°19'1020.6
2018-Jun-21 04:30N 39°14' E 002°08'1020.8
2018-Jun-21 04:00N 39°08' E 001°57'1120.8
2018-Jun-21 03:30N 39°02' E 001°46'1616.2
2018-Jun-21 02:29N 38°54' E 001°27'2 1.9
2018-Jun-21 01:27N 38°52' E 001°27'2216.6
2018-Jun-21 00:06N 38°55' E 000°58'420.7
2018-Jun-20 23:54N 38°57' E 000°53'820.6
2018-Jun-20 23:30N 39°01' E 000°44'5020.9
2018-Jun-20 21:07N 39°24' W 000°13'319.9
2018-Jun-20 21:00N 39°25' W 000°16'3 6.9
2018-Jun-20 20:30N 39°27' W 000°19'0 0.0
2018-Jun-20 19:58N 39°27' W 000°19'0 0.0
2018-Jun-20 19:30N 39°27' W 000°19'0 0.0
2018-Jun-20 19:00N 39°27' W 000°19'0 0.0
2018-Jun-20 18:30N 39°27' W 000°19'2 3.4
2018-Jun-20 18:00N 39°26' W 000°18'8521.2
2018-Jun-20 14:01N 38°49' E 001°20'319.2
2018-Jun-20 13:51N 38°48' E 001°24'616.4
2018-Jun-20 13:30N 38°53' E 001°27'1 1.5
2018-Jun-20 12:49N 38°54' E 001°27'1 0.8
2018-Jun-20 11:48N 38°54' E 001°28'3321.0
2018-Jun-20 10:13N 39°12' E 002°04'521.7
2018-Jun-20 09:58N 39°15' E 002°09'1021.8
2018-Jun-20 09:30N 39°21' E 002°20'1121.7
2018-Jun-20 09:00N 39°26' E 002°32'816.8
2018-Jun-20 08:30N 39°33' E 002°38'0 0.7
2018-Jun-20 07:58N 39°33' E 002°38'0 0.0
2018-Jun-20 07:25N 39°33' E 002°38'0 0.0
2018-Jun-20 07:00N 39°33' E 002°38'0 0.0
2018-Jun-20 06:30N 39°33' E 002°38'0 0.8
2018-Jun-20 06:00N 39°33' E 002°39'918.2
2018-Jun-20 05:30N 39°26' E 002°32'1021.0
2018-Jun-20 05:00N 39°20' E 002°21'4021.5
2018-Jun-20 03:09N 38°58' E 001°38'521.3
2018-Jun-20 02:55N 38°55' E 001°32'4 3.1
2018-Jun-20 01:28N 38°54' E 001°27'8318.3
2018-Jun-19 20:57N 39°24' W 000°13'613.3
2018-Jun-19 20:30N 39°27' W 000°19'0 0.1
2018-Jun-19 19:59N 39°27' W 000°19'0 0.0
2018-Jun-19 19:27N 39°27' W 000°19'0 0.0
2018-Jun-19 19:00N 39°27' W 000°19'0 0.0
2018-Jun-19 18:30N 39°27' W 000°19'0 0.0
2018-Jun-19 18:00N 39°27' W 000°19'0 0.9
2018-Jun-19 17:30N 39°27' W 000°19'7920.8
2018-Jun-19 13:42N 38°50' E 001°11'520.7
2018-Jun-19 13:26N 38°49' E 001°18'814.5
2018-Jun-19 12:54N 38°53' E 001°27'2 3.6
2018-Jun-19 12:28N 38°54' E 001°27'0 0.0
2018-Jun-19 12:00N 38°54' E 001°27'3 5.0
2018-Jun-19 11:28N 38°54' E 001°30'2821.3
2018-Jun-19 10:11N 39°10' E 001°60'421.1
2018-Jun-19 10:01N 39°12' E 002°04'1321.0
2018-Jun-19 09:25N 39°19' E 002°17'920.7
2018-Jun-19 08:58N 39°24' E 002°27'920.6
2018-Jun-19 08:30N 39°30' E 002°36'3 6.2
2018-Jun-19 07:59N 39°33' E 002°38'0 0.0
2018-Jun-19 07:29N 39°33' E 002°38'0 0.0
2018-Jun-19 06:58N 39°33' E 002°38'0 0.0
2018-Jun-19 06:28N 39°33' E 002°38'0 0.0
2018-Jun-19 05:58N 39°33' E 002°38'0 0.0
2018-Jun-19 05:30N 39°33' E 002°38'1 1.7
2018-Jun-19 05:00N 39°32' E 002°38'1020.8
2018-Jun-19 04:30N 39°24' E 002°29'4221.0
2018-Jun-19 02:30N 39°00' E 001°44'1120.7
2018-Jun-19 01:58N 38°55' E 001°32'4 7.4
2018-Jun-19 01:26N 38°54' E 001°27'0 0.2
2018-Jun-19 00:59N 38°54' E 001°27'611.8
2018-Jun-19 00:30N 38°49' E 001°26'2519.6
2018-Jun-18 23:14N 38°56' E 000°55'521.0
2018-Jun-18 23:00N 38°59' E 000°50'1020.8
2018-Jun-18 22:30N 39°04' E 000°38'1720.8
2018-Jun-18 21:42N 39°11' E 000°19'420.8
2018-Jun-18 21:30N 39°13' E 000°14'2720.7
2018-Jun-18 20:12N 39°25' W 000°17'210.5
2018-Jun-18 20:00N 39°27' W 000°19'1 1.1
2018-Jun-18 19:31N 39°27' W 000°19'0 0.0
2018-Jun-18 19:00N 39°27' W 000°19'0 0.0
2018-Jun-18 18:30N 39°27' W 000°19'0 0.0
2018-Jun-18 18:00N 39°27' W 000°19'2 2.9
2018-Jun-18 17:29N 39°26' W 000°18'4420.4
2018-Jun-18 15:20N 39°06' E 000°32'721.4
2018-Jun-18 15:00N 39°03' E 000°40'1121.2
2018-Jun-18 14:30N 38°58' E 000°52'1421.2
2018-Jun-18 13:49N 38°51' E 001°09'1220.3
2018-Jun-18 13:14N 38°48' E 001°24'415.9
2018-Jun-18 13:00N 38°51' E 001°27'4 2.9
2018-Jun-18 11:46N 38°54' E 001°27'2 8.6
2018-Jun-18 11:30N 38°54' E 001°30'1120.9
2018-Jun-18 10:59N 38°60' E 001°41'2520.9
2018-Jun-18 09:46N 39°14' E 002°08'620.9
2018-Jun-18 09:30N 39°18' E 002°14'1121.4
2018-Jun-18 09:00N 39°23' E 002°26'1121.5
2018-Jun-18 08:30N 39°30' E 002°36'3 6.6
2018-Jun-18 08:01N 39°33' E 002°38'0 0.0
2018-Jun-18 07:30N 39°33' E 002°38'0 0.0
2018-Jun-18 07:00N 39°33' E 002°38'0 0.0
2018-Jun-18 06:29N 39°33' E 002°38'0 0.0
2018-Jun-18 05:59N 39°33' E 002°38'0 0.9
2018-Jun-18 05:30N 39°33' E 002°38'611.3
2018-Jun-18 05:00N 39°29' E 002°34'1020.6
2018-Jun-18 04:30N 39°22' E 002°24'4020.8
2018-Jun-18 02:34N 38°60' E 001°41'621.1
2018-Jun-18 02:17N 38°56' E 001°34'6 5.0
2018-Jun-18 01:02N 38°54' E 001°27'0 7.5
2018-Jun-18 00:58N 38°54' E 001°27'2215.7
2018-Jun-17 23:33N 38°55' E 000°58'121.1
2018-Jun-17 23:30N 38°55' E 000°57'1121.3
2018-Jun-17 23:00N 39°01' E 000°45'1120.8
2018-Jun-17 22:28N 39°06' E 000°32'4120.6
2018-Jun-17 20:30N 39°24' W 000°14'5 9.0
2018-Jun-17 19:59N 39°27' W 000°19'0 0.0
2018-Jun-17 19:28N 39°27' W 000°19'0 0.0
2018-Jun-17 18:58N 39°27' W 000°19'0 0.0
2018-Jun-17 18:28N 39°27' W 000°19'0 0.0
2018-Jun-17 18:00N 39°27' W 000°19'0 0.0
2018-Jun-17 17:30N 39°27' W 000°19'0 0.0
2018-Jun-17 17:00N 39°27' W 000°19'3 5.3
2018-Jun-17 16:30N 39°25' W 000°17'11816.8
2018-Jun-17 09:28N 39°25' E 002°16'817.5
2018-Jun-17 08:59N 39°25' E 002°27'815.7
2018-Jun-17 08:29N 39°29' E 002°36'4 7.5
2018-Jun-17 07:58N 39°33' E 002°38'0 0.0
2018-Jun-17 07:30N 39°33' E 002°38'0 0.0
2018-Jun-17 06:57N 39°33' E 002°38'0 0.0
2018-Jun-17 06:30N 39°33' E 002°38'0 0.0
2018-Jun-17 05:59N 39°33' E 002°38'0 0.0
2018-Jun-17 05:29N 39°33' E 002°38'0 0.0
2018-Jun-17 05:00N 39°33' E 002°38'1 2.3
2018-Jun-17 04:29N 39°32' E 002°38'816.6
2018-Jun-17 04:00N 39°26' E 002°31'4717.3
2018-Jun-17 01:18N 39°26' E 001°31'1217.2
2018-Jun-17 00:36N 39°26' E 001°15'417.1
2018-Jun-17 00:23N 39°26' E 001°10'717.1
2018-Jun-17 00:00N 39°26' E 001°02'5317.9
2018-Jun-16 21:03N 39°26' W 000°07'119.0
2018-Jun-16 21:00N 39°26' W 000°08'816.5
2018-Jun-16 20:30N 39°26' W 000°19'1 1.5
2018-Jun-16 20:00N 39°27' W 000°19'0 0.0
2018-Jun-16 19:30N 39°27' W 000°19'0 0.0
2018-Jun-16 19:00N 39°27' W 000°19'0 0.0
2018-Jun-16 18:30N 39°27' W 000°19'0 0.0
2018-Jun-16 18:00N 39°27' W 000°19'0 0.5
2018-Jun-16 17:30N 39°27' W 000°19'4818.5
2018-Jun-16 14:55N 39°04' E 000°36'1721.9
2018-Jun-16 14:07N 38°56' E 000°55'421.8
2018-Jun-16 13:57N 38°55' E 000°60'1021.7
2018-Jun-16 13:29N 38°50' E 001°12'1021.0
2018-Jun-16 13:00N 38°48' E 001°24'7 6.3
2018-Jun-16 11:57N 38°54' E 001°27'0 1.1
2018-Jun-16 11:30N 38°54' E 001°27'1018.8
2018-Jun-16 10:59N 38°59' E 001°38'1721.4
2018-Jun-16 10:10N 39°08' E 001°57'421.7
2018-Jun-16 09:59N 39°10' E 002°01'1221.1
2018-Jun-16 09:25N 39°17' E 002°14'921.0
2018-Jun-16 09:00N 39°22' E 002°23'1020.8
2018-Jun-16 08:31N 39°28' E 002°34'610.6
2018-Jun-16 07:58N 39°33' E 002°38'0 0.0
2018-Jun-16 07:30N 39°33' E 002°38'0 0.0
2018-Jun-16 07:00N 39°33' E 002°38'0 0.0
2018-Jun-16 06:30N 39°33' E 002°38'0 0.0
2018-Jun-16 05:59N 39°33' E 002°38'0 0.0
2018-Jun-16 05:29N 39°33' E 002°38'1 2.0
2018-Jun-16 05:00N 39°32' E 002°38'1020.9
2018-Jun-16 04:30N 39°24' E 002°29'2621.4
2018-Jun-16 03:17N 39°10' E 002°01'721.5
2018-Jun-16 02:57N 39°06' E 001°53'1121.4
2018-Jun-16 02:27N 38°60' E 001°42'921.4
2018-Jun-16 02:01N 38°55' E 001°32'4 4.8
2018-Jun-16 01:16N 38°54' E 001°27'0 0.3
2018-Jun-16 00:59N 38°54' E 001°27'611.7
2018-Jun-16 00:30N 38°49' E 001°26'918.9
2018-Jun-16 00:00N 38°50' E 001°14'1021.0
2018-Jun-15 23:31N 38°54' E 001°01'1021.0
2018-Jun-15 23:01N 38°59' E 000°50'1220.8
2018-Jun-15 22:25N 39°05' E 000°36'4121.0
2018-Jun-15 20:27N 39°23' W 000°12'714.7
2018-Jun-15 20:00N 39°27' W 000°19'0 0.6
2018-Jun-15 19:30N 39°27' W 000°19'0 0.0
2018-Jun-15 18:59N 39°27' W 000°19'0 0.0
2018-Jun-15 18:30N 39°27' W 000°19'0 0.0
2018-Jun-15 18:00N 39°27' W 000°19'4 7.8
2018-Jun-15 17:30N 39°25' W 000°15'4021.5
2018-Jun-15 15:37N 39°06' E 000°31'221.7
2018-Jun-15 15:30N 39°05' E 000°34'1121.5
2018-Jun-15 15:00N 39°00' E 000°46'3216.3
2018-Jun-15 13:03N 38°54' E 001°27'0 6.6
2018-Jun-15 13:00N 38°54' E 001°27'5 3.2
2018-Jun-15 11:32N 38°56' E 001°33'221.0
2018-Jun-15 11:27N 38°57' E 001°35'920.8
2018-Jun-15 11:00N 39°02' E 001°44'1420.7
2018-Jun-15 10:21N 39°09' E 001°59'1121.0
2018-Jun-15 09:49N 39°16' E 002°11'720.6
2018-Jun-15 09:30N 39°19' E 002°18'1020.3
2018-Jun-15 08:59N 39°25' E 002°29'1019.9
2018-Jun-15 08:30N 39°32' E 002°38'1 2.2
2018-Jun-15 08:00N 39°33' E 002°38'0 0.0
2018-Jun-15 07:29N 39°33' E 002°38'0 0.0
2018-Jun-15 06:59N 39°33' E 002°38'0 0.0
2018-Jun-15 06:23N 39°33' E 002°38'0 0.0
2018-Jun-15 05:58N 39°33' E 002°38'0 0.0
2018-Jun-15 05:30N 39°33' E 002°38'4 8.6
2018-Jun-15 05:00N 39°29' E 002°35'1021.3
2018-Jun-15 04:30N 39°22' E 002°25'11915.4
2018-Jun-14 20:49N 39°22' W 000°09'620.0
2018-Jun-14 20:30N 39°25' W 000°16'3 6.0
2018-Jun-14 19:59N 39°27' W 000°19'0 0.0
2018-Jun-14 19:29N 39°27' W 000°19'0 0.0
2018-Jun-14 18:58N 39°27' W 000°19'0 0.0
2018-Jun-14 18:30N 39°27' W 000°19'0 0.4
2018-Jun-14 18:00N 39°27' W 000°19'8019.8
2018-Jun-14 13:58N 38°50' E 001°12'1117.8
2018-Jun-14 13:23N 38°50' E 001°26'511.9
2018-Jun-14 12:58N 38°54' E 001°27'0 0.0
2018-Jun-14 12:28N 38°54' E 001°27'0 0.2
2018-Jun-14 11:55N 38°54' E 001°27'4 9.9
2018-Jun-14 11:30N 38°55' E 001°32'2921.3
2018-Jun-14 10:07N 39°12' E 002°04'421.3
2018-Jun-14 09:56N 39°14' E 002°08'1121.2
2018-Jun-14 09:26N 39°20' E 002°19'1021.0
2018-Jun-14 08:59N 39°25' E 002°30'1020.2
2018-Jun-14 08:30N 39°32' E 002°38'1 1.7
2018-Jun-14 07:59N 39°33' E 002°38'0 0.0
2018-Jun-14 07:28N 39°33' E 002°38'0 0.0
2018-Jun-14 06:58N 39°33' E 002°38'0 0.0
2018-Jun-14 06:28N 39°33' E 002°38'0 0.0
2018-Jun-14 06:00N 39°33' E 002°38'0 0.0
2018-Jun-14 05:30N 39°33' E 002°38'5 9.9
2018-Jun-14 05:00N 39°29' E 002°35'1020.4
2018-Jun-14 04:31N 39°22' E 002°25'3820.4
2018-Jun-14 02:38N 39°01' E 001°44'321.1
2018-Jun-14 02:30N 38°60' E 001°41'1215.8
2018-Jun-14 01:45N 38°54' E 001°27'0 0.0
2018-Jun-14 01:20N 38°54' E 001°27'1 3.6
2018-Jun-14 00:57N 38°53' E 001°27'8019.0
2018-Jun-13 20:42N 39°23' W 000°10'420.2
2018-Jun-13 20:30N 39°24' W 000°14'5 9.3
2018-Jun-13 20:00N 39°27' W 000°19'0 0.0
2018-Jun-13 19:29N 39°27' W 000°19'0 0.0
2018-Jun-13 18:59N 39°27' W 000°19'0 0.0
2018-Jun-13 18:29N 39°27' W 000°19'0 0.4
2018-Jun-13 18:00N 39°27' W 000°19'713.7
2018-Jun-13 17:29N 39°23' W 000°11'7620.8
2018-Jun-13 13:50N 38°50' E 001°17'718.5
2018-Jun-13 13:27N 38°49' E 001°25'6 8.4
2018-Jun-13 12:44N 38°54' E 001°27'0 0.0
2018-Jun-13 12:23N 38°54' E 001°27'0 0.3
2018-Jun-13 11:58N 38°54' E 001°27'612.3
2018-Jun-13 11:30N 38°56' E 001°34'3721.8
2018-Jun-13 09:47N 39°17' E 002°14'621.3
2018-Jun-13 09:29N 39°20' E 002°21'1020.7
2018-Jun-13 09:00N 39°26' E 002°31'917.6
2018-Jun-13 08:30N 39°33' E 002°39'0 0.9
2018-Jun-13 08:00N 39°33' E 002°38'0 0.0
2018-Jun-13 07:27N 39°33' E 002°38'0 0.0
2018-Jun-13 07:00N 39°33' E 002°38'0 0.0
2018-Jun-13 06:25N 39°33' E 002°38'0 1.0
2018-Jun-13 06:00N 39°33' E 002°38'4 7.2
2018-Jun-13 05:30N 39°30' E 002°36'1020.5
2018-Jun-13 05:00N 39°23' E 002°27'4020.4
2018-Jun-13 03:01N 39°01' E 001°43'120.4
2018-Jun-13 03:00N 39°00' E 001°43'1019.8
2018-Jun-13 02:31N 38°56' E 001°32'4 4.1
2018-Jun-13 01:32N 38°54' E 001°27'0 0.9
2018-Jun-13 01:18N 38°54' E 001°27'514.9
2018-Jun-13 00:59N 38°50' E 001°26'7520.4
2018-Jun-12 21:17N 39°20' W 000°03'621.3
2018-Jun-12 21:01N 39°22' W 000°10'916.9
2018-Jun-12 20:30N 39°27' W 000°19'  
Track history (hours):
 
Tides and Currents Weather Stations Pressure Air Temp Water Temp Dewpoint Dewpoint Depression Visibility Wind Speed Wind Dir Waves Ship Positions

Abel Matutes

Last reported at 2018-Jun-22 20:00 UTC. Time now 2018-Jun-22 20:23 UTC.
Position N 39°27' W 000°19'.

Length 190 m; draft 5.5 m.

Type: Passenger vessel. MMSI: 224402000.

Date/timePositionNaut miles runAvg speedWind from/ knotsBaromVisibWave heightAir tempDewpointWater temp
2018-Jun-22 20:00N 39°27' W 000°19'0 0.0
2018-Jun-22 19:30N 39°27' W 000°19'0 0.0
2018-Jun-22 19:00N 39°27' W 000°19'0 0.4
2018-Jun-22 18:31N 39°27' W 000°19'916.4
2018-Jun-22 17:57N 39°22' W 000°09'4221.5
2018-Jun-22 15:58N 39°03' E 000°40'1521.4
2018-Jun-22 15:15N 38°56' E 000°57'1021.3
2018-Jun-22 14:46N 38°51' E 001°09'621.2
2018-Jun-22 14:29N 38°49' E 001°17'914.4
2018-Jun-22 13:52N 38°53' E 001°27'2 3.3
2018-Jun-22 13:22N 38°54' E 001°27'0 0.0
2018-Jun-22 12:57N 38°54' E 001°27'0 0.0
2018-Jun-22 12:30N 38°54' E 001°27'4 6.2
2018-Jun-22 11:56N 38°55' E 001°32'921.1
2018-Jun-22 11:30N 38°60' E 001°41'2421.2
2018-Jun-22 10:22N 39°13' E 002°07'821.4
2018-Jun-22 09:59N 39°18' E 002°15'1021.0
2018-Jun-22 09:31N 39°23' E 002°26'1120.7
2018-Jun-22 09:00N 39°30' E 002°36'3 5.3
2018-Jun-22 08:28N 39°33' E 002°38'0 0.0
2018-Jun-22 07:59N 39°33' E 002°38'0 0.0
2018-Jun-22 07:29N 39°33' E 002°38'0 0.0
2018-Jun-22 06:59N 39°33' E 002°38'0 0.7
2018-Jun-22 06:30N 39°33' E 002°39'917.2
2018-Jun-22 06:00N 39°26' E 002°32'1121.5
2018-Jun-22 05:30N 39°20' E 002°20'1121.6
2018-Jun-22 05:01N 39°14' E 002°09'1121.5
2018-Jun-22 04:31N 39°08' E 001°57'1321.6
2018-Jun-22 03:53N 39°00' E 001°43'1021.1
2018-Jun-22 03:25N 38°55' E 001°32'4 8.7
2018-Jun-22 02:56N 38°54' E 001°27'0 0.0
2018-Jun-22 02:30N 38°54' E 001°27'1 1.1
2018-Jun-22 01:58N 38°54' E 001°27'1514.5
2018-Jun-22 00:58N 38°50' E 001°09'1120.5
2018-Jun-22 00:27N 38°55' E 000°56'1420.7
2018-Jun-21 23:47N 39°01' E 000°41'2220.4
2018-Jun-21 22:43N 39°12' E 000°16'620.4
2018-Jun-21 22:26N 39°15' E 000°09'1120.4
2018-Jun-21 21:55N 39°20' W 000°03'920.5
2018-Jun-21 21:29N 39°24' W 000°13'611.3
2018-Jun-21 20:58N 39°27' W 000°19'0 0.0
2018-Jun-21 20:30N 39°27' W 000°19'0 0.0
2018-Jun-21 19:58N 39°27' W 000°19'0 0.0
2018-Jun-21 19:28N 39°27' W 000°19'0 0.0
2018-Jun-21 19:00N 39°27' W 000°19'0 0.0
2018-Jun-21 18:31N 39°27' W 000°19'4 8.0
2018-Jun-21 18:01N 39°25' W 000°15'1420.7
2018-Jun-21 17:21N 39°18' E 000°01'821.1
2018-Jun-21 16:58N 39°15' E 000°10'1021.4
2018-Jun-21 16:30N 39°10' E 000°21'1221.6
2018-Jun-21 15:56N 39°05' E 000°35'1321.5
2018-Jun-21 15:20N 38°59' E 000°50'721.4
2018-Jun-21 15:01N 38°55' E 000°58'1121.5
2018-Jun-21 14:30N 38°51' E 001°11'1121.1
2018-Jun-21 13:59N 38°48' E 001°24'711.0
2018-Jun-21 13:23N 38°54' E 001°27'0 0.0
2018-Jun-21 12:56N 38°54' E 001°27'0 0.2
2018-Jun-21 12:12N 38°54' E 001°27'2 7.9
2018-Jun-21 12:00N 38°54' E 001°29'1921.3
2018-Jun-21 11:07N 39°04' E 001°49'921.3
2018-Jun-21 10:42N 39°09' E 001°59'421.2
2018-Jun-21 10:31N 39°11' E 002°03'1121.3
2018-Jun-21 10:00N 39°17' E 002°15'1120.9
2018-Jun-21 09:30N 39°23' E 002°26'1020.1
2018-Jun-21 09:00N 39°29' E 002°36'4 7.8
2018-Jun-21 08:29N 39°33' E 002°38'0 0.0
2018-Jun-21 07:59N 39°33' E 002°38'0 0.0
2018-Jun-21 07:28N 39°33' E 002°38'0 0.0
2018-Jun-21 06:58N 39°33' E 002°38'0 0.0
2018-Jun-21 06:30N 39°33' E 002°38'1 1.1
2018-Jun-21 05:59N 39°32' E 002°38'1019.9
2018-Jun-21 05:30N 39°25' E 002°31'1020.7
2018-Jun-21 05:00N 39°19' E 002°19'1020.6
2018-Jun-21 04:30N 39°14' E 002°08'1020.8
2018-Jun-21 04:00N 39°08' E 001°57'1120.8
2018-Jun-21 03:30N 39°02' E 001°46'1616.2
2018-Jun-21 02:29N 38°54' E 001°27'2 1.9
2018-Jun-21 01:27N 38°52' E 001°27'2216.6
2018-Jun-21 00:06N 38°55' E 000°58'420.7
2018-Jun-20 23:54N 38°57' E 000°53'820.6
2018-Jun-20 23:30N 39°01' E 000°44'5020.9
2018-Jun-20 21:07N 39°24' W 000°13'319.9
2018-Jun-20 21:00N 39°25' W 000°16'3 6.9
2018-Jun-20 20:30N 39°27' W 000°19'0 0.0
2018-Jun-20 19:58N 39°27' W 000°19'0 0.0
2018-Jun-20 19:30N 39°27' W 000°19'0 0.0
2018-Jun-20 19:00N 39°27' W 000°19'0 0.0
2018-Jun-20 18:30N 39°27' W 000°19'2 3.4
2018-Jun-20 18:00N 39°26' W 000°18'8521.2
2018-Jun-20 14:01N 38°49' E 001°20'319.2
2018-Jun-20 13:51N 38°48' E 001°24'616.4
2018-Jun-20 13:30N 38°53' E 001°27'1 1.5
2018-Jun-20 12:49N 38°54' E 001°27'1 0.8
2018-Jun-20 11:48N 38°54' E 001°28'3321.0
2018-Jun-20 10:13N 39°12' E 002°04'521.7
2018-Jun-20 09:58N 39°15' E 002°09'1021.8
2018-Jun-20 09:30N 39°21' E 002°20'1121.7
2018-Jun-20 09:00N 39°26' E 002°32'816.8
2018-Jun-20 08:30N 39°33' E 002°38'0 0.7
2018-Jun-20 07:58N 39°33' E 002°38'0 0.0
2018-Jun-20 07:25N 39°33' E 002°38'0 0.0
2018-Jun-20 07:00N 39°33' E 002°38'0 0.0
2018-Jun-20 06:30N 39°33' E 002°38'0 0.8
2018-Jun-20 06:00N 39°33' E 002°39'918.2
2018-Jun-20 05:30N 39°26' E 002°32'1021.0
2018-Jun-20 05:00N 39°20' E 002°21'4021.5
2018-Jun-20 03:09N 38°58' E 001°38'521.3
2018-Jun-20 02:55N 38°55' E 001°32'4 3.1
2018-Jun-20 01:28N 38°54' E 001°27'8318.3
2018-Jun-19 20:57N 39°24' W 000°13'613.3
2018-Jun-19 20:30N 39°27' W 000°19'0 0.1
2018-Jun-19 19:59N 39°27' W 000°19'0 0.0
2018-Jun-19 19:27N 39°27' W 000°19'0 0.0
2018-Jun-19 19:00N 39°27' W 000°19'0 0.0
2018-Jun-19 18:30N 39°27' W 000°19'0 0.0
2018-Jun-19 18:00N 39°27' W 000°19'0 0.9
2018-Jun-19 17:30N 39°27' W 000°19'7920.8
2018-Jun-19 13:42N 38°50' E 001°11'520.7
2018-Jun-19 13:26N 38°49' E 001°18'814.5
2018-Jun-19 12:54N 38°53' E 001°27'2 3.6
2018-Jun-19 12:28N 38°54' E 001°27'0 0.0
2018-Jun-19 12:00N 38°54' E 001°27'3 5.0
2018-Jun-19 11:28N 38°54' E 001°30'2821.3
2018-Jun-19 10:11N 39°10' E 001°60'421.1
2018-Jun-19 10:01N 39°12' E 002°04'1321.0
2018-Jun-19 09:25N 39°19' E 002°17'920.7
2018-Jun-19 08:58N 39°24' E 002°27'920.6
2018-Jun-19 08:30N 39°30' E 002°36'3 6.2
2018-Jun-19 07:59N 39°33' E 002°38'0 0.0
2018-Jun-19 07:29N 39°33' E 002°38'0 0.0
2018-Jun-19 06:58N 39°33' E 002°38'0 0.0
2018-Jun-19 06:28N 39°33' E 002°38'0 0.0
2018-Jun-19 05:58N 39°33' E 002°38'0 0.0
2018-Jun-19 05:30N 39°33' E 002°38'1 1.7
2018-Jun-19 05:00N 39°32' E 002°38'1020.8
2018-Jun-19 04:30N 39°24' E 002°29'4221.0
2018-Jun-19 02:30N 39°00' E 001°44'1120.7
2018-Jun-19 01:58N 38°55' E 001°32'4 7.4
2018-Jun-19 01:26N 38°54' E 001°27'0 0.2
2018-Jun-19 00:59N 38°54' E 001°27'611.8
2018-Jun-19 00:30N 38°49' E 001°26'2519.6
2018-Jun-18 23:14N 38°56' E 000°55'521.0
2018-Jun-18 23:00N 38°59' E 000°50'1020.8
2018-Jun-18 22:30N 39°04' E 000°38'1720.8
2018-Jun-18 21:42N 39°11' E 000°19'420.8
2018-Jun-18 21:30N 39°13' E 000°14'2720.7
2018-Jun-18 20:12N 39°25' W 000°17'210.5
2018-Jun-18 20:00N 39°27' W 000°19'1 1.1
2018-Jun-18 19:31N 39°27' W 000°19'0 0.0
2018-Jun-18 19:00N 39°27' W 000°19'0 0.0
2018-Jun-18 18:30N 39°27' W 000°19'0 0.0
2018-Jun-18 18:00N 39°27' W 000°19'2 2.9
2018-Jun-18 17:29N 39°26' W 000°18'4420.4
2018-Jun-18 15:20N 39°06' E 000°32'721.4
2018-Jun-18 15:00N 39°03' E 000°40'1121.2
2018-Jun-18 14:30N 38°58' E 000°52'1421.2
2018-Jun-18 13:49N 38°51' E 001°09'1220.3
2018-Jun-18 13:14N 38°48' E 001°24'415.9
2018-Jun-18 13:00N 38°51' E 001°27'4 2.9
2018-Jun-18 11:46N 38°54' E 001°27'2 8.6
2018-Jun-18 11:30N 38°54' E 001°30'1120.9
2018-Jun-18 10:59N 38°60' E 001°41'2520.9
2018-Jun-18 09:46N 39°14' E 002°08'620.9
2018-Jun-18 09:30N 39°18' E 002°14'1121.4
2018-Jun-18 09:00N 39°23' E 002°26'1121.5
2018-Jun-18 08:30N 39°30' E 002°36'3 6.6
2018-Jun-18 08:01N 39°33' E 002°38'0 0.0
2018-Jun-18 07:30N 39°33' E 002°38'0 0.0
2018-Jun-18 07:00N 39°33' E 002°38'0 0.0
2018-Jun-18 06:29N 39°33' E 002°38'0 0.0
2018-Jun-18 05:59N 39°33' E 002°38'0 0.9
2018-Jun-18 05:30N 39°33' E 002°38'611.3
2018-Jun-18 05:00N 39°29' E 002°34'1020.6
2018-Jun-18 04:30N 39°22' E 002°24'4020.8
2018-Jun-18 02:34N 38°60' E 001°41'621.1
2018-Jun-18 02:17N 38°56' E 001°34'6 5.0
2018-Jun-18 01:02N 38°54' E 001°27'0 7.5
2018-Jun-18 00:58N 38°54' E 001°27'2215.7
2018-Jun-17 23:33N 38°55' E 000°58'121.1
2018-Jun-17 23:30N 38°55' E 000°57'1121.3
2018-Jun-17 23:00N 39°01' E 000°45'1120.8
2018-Jun-17 22:28N 39°06' E 000°32'4120.6
2018-Jun-17 20:30N 39°24' W 000°14'5 9.0
2018-Jun-17 19:59N 39°27' W 000°19'0 0.0
2018-Jun-17 19:28N 39°27' W 000°19'0 0.0
2018-Jun-17 18:58N 39°27' W 000°19'0 0.0
2018-Jun-17 18:28N 39°27' W 000°19'0 0.0
2018-Jun-17 18:00N 39°27' W 000°19'0 0.0
2018-Jun-17 17:30N 39°27' W 000°19'0 0.0
2018-Jun-17 17:00N 39°27' W 000°19'3 5.3
2018-Jun-17 16:30N 39°25' W 000°17'11816.8
2018-Jun-17 09:28N 39°25' E 002°16'817.5
2018-Jun-17 08:59N 39°25' E 002°27'815.7
2018-Jun-17 08:29N 39°29' E 002°36'4 7.5
2018-Jun-17 07:58N 39°33' E 002°38'0 0.0
2018-Jun-17 07:30N 39°33' E 002°38'0 0.0
2018-Jun-17 06:57N 39°33' E 002°38'0 0.0
2018-Jun-17 06:30N 39°33' E 002°38'0 0.0
2018-Jun-17 05:59N 39°33' E 002°38'0 0.0
2018-Jun-17 05:29N 39°33' E 002°38'0 0.0
2018-Jun-17 05:00N 39°33' E 002°38'1 2.3
2018-Jun-17 04:29N 39°32' E 002°38'816.6
2018-Jun-17 04:00N 39°26' E 002°31'4717.3
2018-Jun-17 01:18N 39°26' E 001°31'1217.2
2018-Jun-17 00:36N 39°26' E 001°15'417.1
2018-Jun-17 00:23N 39°26' E 001°10'717.1
2018-Jun-17 00:00N 39°26' E 001°02'5317.9
2018-Jun-16 21:03N 39°26' W 000°07'119.0
2018-Jun-16 21:00N 39°26' W 000°08'816.5
2018-Jun-16 20:30N 39°26' W 000°19'1 1.5
2018-Jun-16 20:00N 39°27' W 000°19'0 0.0
2018-Jun-16 19:30N 39°27' W 000°19'0 0.0
2018-Jun-16 19:00N 39°27' W 000°19'0 0.0
2018-Jun-16 18:30N 39°27' W 000°19'0 0.0
2018-Jun-16 18:00N 39°27' W 000°19'0 0.5
2018-Jun-16 17:30N 39°27' W 000°19'4818.5
2018-Jun-16 14:55N 39°04' E 000°36'1721.9
2018-Jun-16 14:07N 38°56' E 000°55'421.8
2018-Jun-16 13:57N 38°55' E 000°60'1021.7
2018-Jun-16 13:29N 38°50' E 001°12'1021.0
2018-Jun-16 13:00N 38°48' E 001°24'7 6.3
2018-Jun-16 11:57N 38°54' E 001°27'0 1.1
2018-Jun-16 11:30N 38°54' E 001°27'1018.8
2018-Jun-16 10:59N 38°59' E 001°38'1721.4
2018-Jun-16 10:10N 39°08' E 001°57'421.7
2018-Jun-16 09:59N 39°10' E 002°01'1221.1
2018-Jun-16 09:25N 39°17' E 002°14'921.0
2018-Jun-16 09:00N 39°22' E 002°23'1020.8
2018-Jun-16 08:31N 39°28' E 002°34'610.6
2018-Jun-16 07:58N 39°33' E 002°38'0 0.0
2018-Jun-16 07:30N 39°33' E 002°38'0 0.0
2018-Jun-16 07:00N 39°33' E 002°38'0 0.0
2018-Jun-16 06:30N 39°33' E 002°38'0 0.0
2018-Jun-16 05:59N 39°33' E 002°38'0 0.0
2018-Jun-16 05:29N 39°33' E 002°38'1 2.0
2018-Jun-16 05:00N 39°32' E 002°38'1020.9
2018-Jun-16 04:30N 39°24' E 002°29'2621.4
2018-Jun-16 03:17N 39°10' E 002°01'721.5
2018-Jun-16 02:57N 39°06' E 001°53'1121.4
2018-Jun-16 02:27N 38°60' E 001°42'921.4
2018-Jun-16 02:01N 38°55' E 001°32'4 4.8
2018-Jun-16 01:16N 38°54' E 001°27'0 0.3
2018-Jun-16 00:59N 38°54' E 001°27'611.7
2018-Jun-16 00:30N 38°49' E 001°26'918.9
2018-Jun-16 00:00N 38°50' E 001°14'1021.0
2018-Jun-15 23:31N 38°54' E 001°01'1021.0
2018-Jun-15 23:01N 38°59' E 000°50'1220.8
2018-Jun-15 22:25N 39°05' E 000°36'4121.0
2018-Jun-15 20:27N 39°23' W 000°12'714.7
2018-Jun-15 20:00N 39°27' W 000°19'0 0.6
2018-Jun-15 19:30N 39°27' W 000°19'0 0.0
2018-Jun-15 18:59N 39°27' W 000°19'0 0.0
2018-Jun-15 18:30N 39°27' W 000°19'0 0.0
2018-Jun-15 18:00N 39°27' W 000°19'4 7.8
2018-Jun-15 17:30N 39°25' W 000°15'4021.5
2018-Jun-15 15:37N 39°06' E 000°31'221.7
2018-Jun-15 15:30N 39°05' E 000°34'1121.5
2018-Jun-15 15:00N 39°00' E 000°46'3216.3
2018-Jun-15 13:03N 38°54' E 001°27'0 6.6
2018-Jun-15 13:00N 38°54' E 001°27'5 3.2
2018-Jun-15 11:32N 38°56' E 001°33'221.0
2018-Jun-15 11:27N 38°57' E 001°35'920.8
2018-Jun-15 11:00N 39°02' E 001°44'1420.7
2018-Jun-15 10:21N 39°09' E 001°59'1121.0
2018-Jun-15 09:49N 39°16' E 002°11'720.6
2018-Jun-15 09:30N 39°19' E 002°18'1020.3
2018-Jun-15 08:59N 39°25' E 002°29'1019.9
2018-Jun-15 08:30N 39°32' E 002°38'1 2.2
2018-Jun-15 08:00N 39°33' E 002°38'0 0.0
2018-Jun-15 07:29N 39°33' E 002°38'0 0.0
2018-Jun-15 06:59N 39°33' E 002°38'0 0.0
2018-Jun-15 06:23N 39°33' E 002°38'0 0.0
2018-Jun-15 05:58N 39°33' E 002°38'0 0.0
2018-Jun-15 05:30N 39°33' E 002°38'4 8.6
2018-Jun-15 05:00N 39°29' E 002°35'1021.3
2018-Jun-15 04:30N 39°22' E 002°25'11915.4
2018-Jun-14 20:49N 39°22' W 000°09'620.0
2018-Jun-14 20:30N 39°25' W 000°16'3 6.0
2018-Jun-14 19:59N 39°27' W 000°19'0 0.0
2018-Jun-14 19:29N 39°27' W 000°19'0 0.0
2018-Jun-14 18:58N 39°27' W 000°19'0 0.0
2018-Jun-14 18:30N 39°27' W 000°19'0 0.4
2018-Jun-14 18:00N 39°27' W 000°19'8019.8
2018-Jun-14 13:58N 38°50' E 001°12'1117.8
2018-Jun-14 13:23N 38°50' E 001°26'511.9
2018-Jun-14 12:58N 38°54' E 001°27'0 0.0
2018-Jun-14 12:28N 38°54' E 001°27'0 0.2
2018-Jun-14 11:55N 38°54' E 001°27'4 9.9
2018-Jun-14 11:30N 38°55' E 001°32'2921.3
2018-Jun-14 10:07N 39°12' E 002°04'421.3
2018-Jun-14 09:56N 39°14' E 002°08'1121.2
2018-Jun-14 09:26N 39°20' E 002°19'1021.0
2018-Jun-14 08:59N 39°25' E 002°30'1020.2
2018-Jun-14 08:30N 39°32' E 002°38'1 1.7
2018-Jun-14 07:59N 39°33' E 002°38'0 0.0
2018-Jun-14 07:28N 39°33' E 002°38'0 0.0
2018-Jun-14 06:58N 39°33' E 002°38'0 0.0
2018-Jun-14 06:28N 39°33' E 002°38'0 0.0
2018-Jun-14 06:00N 39°33' E 002°38'0 0.0
2018-Jun-14 05:30N 39°33' E 002°38'5 9.9
2018-Jun-14 05:00N 39°29' E 002°35'1020.4
2018-Jun-14 04:31N 39°22' E 002°25'3820.4
2018-Jun-14 02:38N 39°01' E 001°44'321.1
2018-Jun-14 02:30N 38°60' E 001°41'1215.8
2018-Jun-14 01:45N 38°54' E 001°27'0 0.0
2018-Jun-14 01:20N 38°54' E 001°27'1 3.6
2018-Jun-14 00:57N 38°53' E 001°27'8019.0
2018-Jun-13 20:42N 39°23' W 000°10'420.2
2018-Jun-13 20:30N 39°24' W 000°14'5 9.3
2018-Jun-13 20:00N 39°27' W 000°19'0 0.0
2018-Jun-13 19:29N 39°27' W 000°19'0 0.0
2018-Jun-13 18:59N 39°27' W 000°19'0 0.0
2018-Jun-13 18:29N 39°27' W 000°19'0 0.4
2018-Jun-13 18:00N 39°27' W 000°19'713.7
2018-Jun-13 17:29N 39°23' W 000°11'7620.8
2018-Jun-13 13:50N 38°50' E 001°17'718.5
2018-Jun-13 13:27N 38°49' E 001°25'6 8.4
2018-Jun-13 12:44N 38°54' E 001°27'0 0.0
2018-Jun-13 12:23N 38°54' E 001°27'0 0.3
2018-Jun-13 11:58N 38°54' E 001°27'612.3
2018-Jun-13 11:30N 38°56' E 001°34'3721.8
2018-Jun-13 09:47N 39°17' E 002°14'621.3
2018-Jun-13 09:29N 39°20' E 002°21'1020.7
2018-Jun-13 09:00N 39°26' E 002°31'917.6
2018-Jun-13 08:30N 39°33' E 002°39'0 0.9
2018-Jun-13 08:00N 39°33' E 002°38'0 0.0
2018-Jun-13 07:27N 39°33' E 002°38'0 0.0
2018-Jun-13 07:00N 39°33' E 002°38'0 0.0
2018-Jun-13 06:25N 39°33' E 002°38'0 1.0
2018-Jun-13 06:00N 39°33' E 002°38'4 7.2
2018-Jun-13 05:30N 39°30' E 002°36'1020.5
2018-Jun-13 05:00N 39°23' E 002°27'4020.4
2018-Jun-13 03:01N 39°01' E 001°43'120.4
2018-Jun-13 03:00N 39°00' E 001°43'1019.8
2018-Jun-13 02:31N 38°56' E 001°32'4 4.1
2018-Jun-13 01:32N 38°54' E 001°27'0 0.9
2018-Jun-13 01:18N 38°54' E 001°27'514.9
2018-Jun-13 00:59N 38°50' E 001°26'7520.4
2018-Jun-12 21:17N 39°20' W 000°03'621.3
2018-Jun-12 21:01N 39°22' W 000°10'916.9
2018-Jun-12 20:30N 39°27' W 000°19'  

Dump ship's entire track history